Searsmont, Maine
Current Conditions -  °F | °C
As of 8:35 AM on Thursday 23 Oct 2014 (Local Time) from KRKD Reporting Station
Overcast Overcast  
Wind Chill: 11°   Ceiling: 1000
Heat Index: 11°   Visibility: 2.5mi
Dew Point:   Wind: 20mph
Humidity: 88%   Direction: 40°NE
Pressure: 29.82"   Gusts: 32mph
Location:  44.36°N, 69.2°W
Report Text: KRKD 231235Z AUTO 04017G28KT 2 1/2SM OVC010 11/09 A2982 RMK AO1 P0006
Loading
Personal Weather Stations






























Interactive Weather Map
Tropical Storm Tracking
New forecast layout! Learn more

10-Day Weather Forecast

Advertisements
Track Severe Weather on mobile